createdAt,value
2019-06-10T00:00:42.054Z,19.70
2019-06-10T00:03:12.806Z,19.73
2019-06-10T00:05:46.376Z,19.75
2019-06-10T00:08:21.014Z,19.78
2019-06-10T00:10:52.310Z,19.81
2019-06-10T00:13:22.543Z,19.87
2019-06-10T00:15:54.043Z,19.92
2019-06-10T00:18:38.369Z,19.96
2019-06-10T00:20:57.310Z,19.59
2019-06-10T00:23:27.822Z,20.07
2019-06-10T00:26:01.277Z,20.08
2019-06-10T00:28:31.115Z,20.08
2019-06-10T00:31:03.673Z,20.12
2019-06-10T00:33:33.532Z,20.14
2019-06-10T00:36:07.010Z,19.67
2019-06-10T00:38:36.161Z,20.14
2019-06-10T00:41:07.631Z,20.14
2019-06-10T00:43:42.866Z,20.13
2019-06-10T00:46:13.905Z,20.15
2019-06-10T00:48:44.216Z,20.17
2019-06-10T00:51:14.469Z,20.22
2019-06-10T00:53:51.440Z,20.26
2019-06-10T00:56:21.795Z,20.29
2019-06-10T00:58:52.138Z,20.30
2019-06-10T01:01:22.868Z,20.34
2019-06-10T01:04:06.520Z,20.44
2019-06-10T01:06:37.026Z,20.51
2019-06-10T01:09:15.599Z,20.54
2019-06-10T01:11:46.526Z,20.06
2019-06-10T01:14:17.590Z,20.58
2019-06-10T01:16:50.505Z,20.59
2019-06-10T01:19:25.030Z,20.62
2019-06-10T01:21:55.693Z,20.14
2019-06-10T01:24:26.444Z,20.64
2019-06-10T01:26:56.659Z,20.65
2019-06-10T01:29:28.294Z,20.65
2019-06-10T01:31:58.987Z,20.64
2019-06-10T01:34:31.120Z,20.67
2019-06-10T01:37:06.769Z,20.69
2019-06-10T01:39:41.219Z,20.70
2019-06-10T01:42:13.989Z,20.63
2019-06-10T01:44:44.456Z,20.68
2019-06-10T01:47:17.570Z,20.67
2019-06-10T01:49:51.733Z,20.66
2019-06-10T01:52:25.359Z,20.61
2019-06-10T01:54:57.180Z,20.57
2019-06-10T01:57:30.880Z,20.56
2019-06-10T02:00:09.375Z,20.56
2019-06-10T02:02:37.483Z,20.55
2019-06-10T02:05:12.609Z,20.47
2019-06-10T02:07:42.350Z,20.42
2019-06-10T02:10:19.071Z,20.41
2019-06-10T02:12:50.885Z,20.38
2019-06-10T02:15:31.394Z,20.38
2019-06-10T02:18:02.345Z,20.38
2019-06-10T02:20:34.657Z,20.33
2019-06-10T02:23:07.207Z,20.29
2019-06-10T02:25:41.223Z,20.26
2019-06-10T02:28:14.887Z,20.25
2019-06-10T02:31:43.824Z,20.25
2019-06-10T02:35:14.204Z,20.24
2019-06-10T02:43:49.510Z,19.68
2019-06-10T02:46:30.818Z,20.10
2019-06-10T02:49:21.519Z,20.07
2019-06-10T02:51:43.800Z,20.06
2019-06-10T02:57:40.038Z,19.99
2019-06-10T03:00:20.704Z,19.98
2019-06-10T03:02:48.839Z,19.96
2019-06-10T03:05:30.630Z,19.93
2019-06-10T03:07:58.152Z,19.92
2019-06-10T03:10:37.167Z,19.88
2019-06-10T03:13:09.022Z,19.86
2019-06-10T03:15:44.093Z,19.84
2019-06-10T03:18:17.816Z,19.86
2019-06-10T03:20:49.073Z,19.88
2019-06-10T03:23:23.239Z,19.88
2019-06-10T03:26:04.679Z,19.91
2019-06-10T03:28:35.494Z,19.92
2019-06-10T03:31:18.135Z,19.97
2019-06-10T03:33:49.222Z,20.01
2019-06-10T03:36:28.805Z,20.03
2019-06-10T03:39:02.653Z,20.05
2019-06-10T03:41:34.071Z,20.04
2019-06-10T03:44:05.686Z,20.04
2019-06-10T03:46:37.084Z,20.09
2019-06-10T03:49:08.904Z,20.08
2019-06-10T03:51:42.569Z,19.61
2019-06-10T03:54:13.336Z,20.10
2019-06-10T03:56:44.257Z,20.11
2019-06-10T03:59:15.052Z,20.13
2019-06-10T04:01:45.739Z,20.17
2019-06-10T04:04:19.426Z,20.19
2019-06-10T04:06:53.170Z,20.23
2019-06-10T04:09:29.639Z,20.27
2019-06-10T04:12:02.132Z,20.29
2019-06-10T04:14:34.422Z,20.29
2019-06-10T04:17:13.092Z,20.31
2019-06-10T04:19:47.176Z,20.34
2019-06-10T04:22:19.590Z,20.35
2019-06-10T04:24:51.956Z,20.36
2019-06-10T04:27:24.162Z,20.38
2019-06-10T04:29:57.653Z,20.38
2019-06-10T04:32:29.349Z,20.38
2019-06-10T04:35:04.880Z,20.38
2019-06-10T04:37:46.583Z,20.34
2019-06-10T04:40:21.101Z,20.22
2019-06-10T04:42:53.106Z,20.10
2019-06-10T04:45:27.784Z,20.05
2019-06-10T04:48:03.021Z,20.06
2019-06-10T04:50:45.508Z,20.06
2019-06-10T04:53:14.457Z,20.09
2019-06-10T04:55:48.367Z,20.03
2019-06-10T04:58:23.326Z,20.04
2019-06-10T05:00:54.284Z,20.01
2019-06-10T05:03:26.784Z,20.02
2019-06-10T05:05:59.254Z,19.52
2019-06-10T05:08:33.667Z,20.02
2019-06-10T05:11:14.517Z,20.03
2019-06-10T05:13:46.779Z,20.04
2019-06-10T05:16:17.830Z,20.05
2019-06-10T05:18:54.842Z,20.10
2019-06-10T05:21:29.407Z,20.12
2019-06-10T05:24:02.782Z,20.12
2019-06-10T05:26:33.727Z,19.62
2019-06-10T05:29:07.641Z,20.09
2019-06-10T05:31:37.789Z,20.13
2019-06-10T05:34:08.815Z,20.13
2019-06-10T05:36:39.296Z,20.18
2019-06-10T05:39:12.034Z,20.22
2019-06-10T05:41:43.269Z,20.17
2019-06-10T05:44:14.824Z,20.21
2019-06-10T05:46:45.255Z,20.31
2019-06-10T05:49:16.136Z,20.49
2019-06-10T05:51:46.548Z,20.71
2019-06-10T05:54:17.607Z,21.04
2019-06-10T05:56:48.195Z,21.38
2019-06-10T05:59:18.822Z,21.74
2019-06-10T06:01:49.792Z,22.10
2019-06-10T06:04:23.315Z,22.34
2019-06-10T06:06:54.231Z,22.56
2019-06-10T06:09:27.094Z,22.76
2019-06-10T06:11:57.719Z,22.97
2019-06-10T06:14:29.546Z,23.07
2019-06-10T06:17:02.221Z,23.19
2019-06-10T06:19:35.500Z,23.32
2019-06-10T06:22:06.004Z,23.36
2019-06-10T06:24:38.003Z,23.48
2019-06-10T06:27:09.184Z,23.66
2019-06-10T06:29:39.956Z,23.86
2019-06-10T06:32:13.188Z,24.04
2019-06-10T06:34:44.723Z,24.21
2019-06-10T06:37:17.012Z,24.29
2019-06-10T06:39:48.745Z,24.42
2019-06-10T06:42:20.171Z,24.53
2019-06-10T06:44:54.501Z,24.64
2019-06-10T06:47:25.831Z,24.88
2019-06-10T06:49:58.975Z,24.58
2019-06-10T06:53:04.945Z,25.03
2019-06-10T06:55:09.526Z,25.20
2019-06-10T06:57:43.159Z,25.34
2019-06-10T07:00:40.819Z,25.34
2019-06-10T07:02:47.291Z,25.42
2019-06-10T07:05:20.170Z,25.50
2019-06-10T07:07:55.640Z,25.64
2019-06-10T07:10:33.183Z,25.72
2019-06-10T07:13:06.932Z,25.78
2019-06-10T07:15:47.048Z,25.85
2019-06-10T07:18:17.199Z,26.01
2019-06-10T07:20:48.747Z,26.26
2019-06-10T07:23:22.525Z,26.39
2019-06-10T07:25:53.558Z,26.39
2019-06-10T07:28:28.919Z,26.38
2019-06-10T07:31:19.853Z,26.35
2019-06-10T07:33:39.212Z,26.31
2019-06-10T07:36:09.151Z,26.38
2019-06-10T07:38:45.754Z,26.62
2019-06-10T07:41:14.012Z,26.74
2019-06-10T07:43:49.420Z,27.04
2019-06-10T07:46:23.098Z,27.39
2019-06-10T07:48:56.822Z,27.75
2019-06-10T07:51:27.357Z,28.01
2019-06-10T07:53:58.797Z,28.15
2019-06-10T07:56:33.814Z,28.36
2019-06-10T07:59:09.531Z,28.50
2019-06-10T08:01:48.096Z,28.45
2019-06-10T08:04:13.001Z,28.35
2019-06-10T08:06:45.686Z,28.43
2019-06-10T08:09:16.220Z,28.50
2019-06-10T08:11:48.625Z,28.60
2019-06-10T08:14:22.288Z,28.73
2019-06-10T08:16:53.160Z,28.74
2019-06-10T08:19:34.270Z,28.72
2019-06-10T08:21:57.862Z,28.81
2019-06-10T08:24:28.666Z,28.88
2019-06-10T08:27:02.538Z,28.88
2019-06-10T08:29:33.153Z,28.88
2019-06-10T08:32:05.660Z,28.84
2019-06-10T08:34:38.019Z,28.77
2019-06-10T08:37:08.338Z,28.76
2019-06-10T08:39:40.213Z,28.64
2019-06-10T08:42:12.538Z,28.64
2019-06-10T08:44:47.246Z,28.68
2019-06-10T08:47:16.683Z,28.83
2019-06-10T08:49:49.108Z,29.03
2019-06-10T08:52:23.910Z,29.25
2019-06-10T08:54:57.961Z,29.45
2019-06-10T08:57:29.003Z,29.05
2019-06-10T09:00:11.001Z,29.47
2019-06-10T09:02:35.118Z,29.44
2019-06-10T09:05:15.615Z,29.34
2019-06-10T09:07:50.910Z,29.41
2019-06-10T09:10:22.731Z,29.69
2019-06-10T09:12:54.768Z,29.88
2019-06-10T09:15:32.344Z,29.91
2019-06-10T09:18:04.232Z,30.03
2019-06-10T09:20:35.302Z,30.12
2019-06-10T09:23:21.593Z,30.23
2019-06-10T09:25:45.252Z,30.30
2019-06-10T09:28:13.586Z,30.34
2019-06-10T09:30:49.998Z,30.30
2019-06-10T09:33:36.575Z,30.42
2019-06-10T09:36:09.081Z,30.51
2019-06-10T09:38:45.086Z,30.59
2019-06-10T09:41:14.171Z,30.50
2019-06-10T09:43:50.812Z,30.29
2019-06-10T09:46:24.528Z,30.34
2019-06-10T09:48:56.748Z,31.09
2019-06-10T09:51:27.327Z,31.14
2019-06-10T09:54:03.082Z,31.09
2019-06-10T09:56:33.010Z,31.07
2019-06-10T09:59:03.929Z,31.05
2019-06-10T10:01:34.693Z,30.90
2019-06-10T10:04:06.438Z,30.97
2019-06-10T10:06:38.060Z,31.07
2019-06-10T10:09:23.171Z,31.17
2019-06-10T10:11:55.302Z,31.23
2019-06-10T10:14:29.748Z,31.25
2019-06-10T10:17:06.859Z,31.37
2019-06-10T10:19:37.615Z,31.61
2019-06-10T10:22:10.908Z,31.70
2019-06-10T10:24:42.461Z,31.74
2019-06-10T10:27:13.864Z,31.87
2019-06-10T10:29:46.880Z,31.85
2019-06-10T10:32:23.184Z,31.82
2019-06-10T10:34:56.417Z,31.50
2019-06-10T10:37:29.187Z,31.76
2019-06-10T10:40:02.994Z,31.58
2019-06-10T10:42:45.071Z,31.20
2019-06-10T10:45:07.967Z,31.41
2019-06-10T10:47:39.481Z,31.73
2019-06-10T10:50:13.847Z,31.98
2019-06-10T10:52:48.629Z,32.18
2019-06-10T10:55:22.290Z,32.08
2019-06-10T10:57:57.689Z,32.06
2019-06-10T11:00:37.337Z,31.89
2019-06-10T11:03:08.146Z,31.89
2019-06-10T11:05:39.782Z,31.96
2019-06-10T11:08:14.274Z,31.89
2019-06-10T11:10:55.503Z,31.78
2019-06-10T11:13:26.480Z,31.59
2019-06-10T11:15:58.612Z,31.55
2019-06-10T11:18:31.209Z,31.63
2019-06-10T11:21:05.054Z,31.65
2019-06-10T11:23:37.562Z,31.58
2019-06-10T11:26:09.442Z,31.07
2019-06-10T11:28:43.427Z,31.49
2019-06-10T11:31:16.404Z,31.45
2019-06-10T11:33:53.874Z,31.41
2019-06-10T11:36:26.443Z,31.34
2019-06-10T11:39:07.660Z,31.48
2019-06-10T11:41:43.135Z,31.52
2019-06-10T11:44:15.013Z,31.16
2019-06-10T11:46:54.026Z,31.24
2019-06-10T11:49:33.954Z,31.35
2019-06-10T11:52:12.707Z,31.32
2019-06-10T11:55:01.672Z,31.25
2019-06-10T11:57:22.828Z,31.36
2019-06-10T11:59:55.949Z,31.26
2019-06-10T12:02:41.803Z,31.08
2019-06-10T12:05:13.588Z,31.11
2019-06-10T12:07:45.772Z,31.00
2019-06-10T12:10:23.199Z,30.95
2019-06-10T12:13:00.559Z,30.83
2019-06-10T12:16:09.693Z,30.94
2019-06-10T12:18:09.321Z,30.87
2019-06-10T12:20:43.285Z,30.83
2019-06-10T12:23:18.134Z,30.73
2019-06-10T12:25:52.967Z,30.74
2019-06-10T12:28:23.410Z,30.55
2019-06-10T12:30:59.253Z,29.83
2019-06-10T12:33:27.139Z,30.70
2019-06-10T12:36:01.524Z,30.68
2019-06-10T12:38:43.535Z,30.69
2019-06-10T12:41:14.314Z,30.69
2019-06-10T12:43:48.878Z,30.73
2019-06-10T12:46:23.253Z,30.37
2019-06-10T12:48:58.168Z,30.29
2019-06-10T12:51:32.715Z,30.13
2019-06-10T12:54:08.035Z,30.21
2019-06-10T12:56:42.361Z,30.50
2019-06-10T12:59:19.629Z,30.74
2019-06-10T13:01:58.057Z,30.98
2019-06-10T13:04:29.287Z,31.03
2019-06-10T13:07:05.198Z,30.87
2019-06-10T13:09:35.364Z,30.99
2019-06-10T13:12:05.903Z,31.31
2019-06-10T13:14:48.349Z,31.36
2019-06-10T13:17:23.509Z,31.53
2019-06-10T13:20:01.216Z,31.58
2019-06-10T13:22:32.799Z,31.25
2019-06-10T13:25:04.718Z,31.23
2019-06-10T13:27:36.785Z,31.60
2019-06-10T13:30:22.912Z,31.45
2019-06-10T13:32:46.451Z,31.53
2019-06-10T13:35:22.857Z,31.75
2019-06-10T13:37:54.325Z,32.13
2019-06-10T13:40:25.668Z,32.64
2019-06-10T13:42:59.714Z,32.79
2019-06-10T13:45:33.205Z,32.90
2019-06-10T13:48:09.983Z,32.77
2019-06-10T13:50:38.804Z,32.91
2019-06-10T13:53:13.541Z,33.21
2019-06-10T13:55:44.234Z,33.38
2019-06-10T13:58:15.475Z,33.33
2019-06-10T14:00:47.054Z,33.36
2019-06-10T14:03:17.816Z,33.33
2019-06-10T14:05:48.369Z,33.44
2019-06-10T14:08:24.285Z,33.50
2019-06-10T14:10:54.011Z,33.23
2019-06-10T14:13:27.870Z,33.23
2019-06-10T14:15:58.006Z,33.34
2019-06-10T14:18:28.210Z,33.43
2019-06-10T14:20:58.589Z,33.45
2019-06-10T14:23:29.878Z,33.48
2019-06-10T14:26:03.237Z,33.44
2019-06-10T14:28:40.689Z,33.20
2019-06-10T14:31:29.862Z,32.99
2019-06-10T14:33:42.892Z,32.80
2019-06-10T14:36:16.639Z,32.52
2019-06-10T14:38:48.186Z,32.25
2019-06-10T14:41:19.086Z,32.16
2019-06-10T14:43:52.951Z,32.30
2019-06-10T14:46:23.184Z,32.49
2019-06-10T14:48:54.961Z,32.64
2019-06-10T14:51:28.117Z,32.77
2019-06-10T14:54:03.283Z,32.82
2019-06-10T14:56:49.674Z,32.91
2019-06-10T14:59:09.562Z,32.76
2019-06-10T15:01:42.643Z,32.47
2019-06-10T15:04:15.130Z,32.17
2019-06-10T15:06:46.561Z,31.75
2019-06-10T15:09:23.650Z,31.45
2019-06-10T15:11:58.591Z,31.37
2019-06-10T15:14:33.343Z,31.25
2019-06-10T15:17:10.717Z,31.29
2019-06-10T15:19:45.589Z,31.18
2019-06-10T15:22:23.552Z,31.11
2019-06-10T15:28:34.189Z,30.83
2019-06-10T15:31:08.252Z,30.42
2019-06-10T15:33:38.475Z,30.15
2019-06-10T15:36:11.204Z,29.80
2019-06-10T15:38:43.876Z,29.61
2019-06-10T15:41:16.550Z,29.45
2019-06-10T15:43:44.909Z,29.21
2019-06-10T15:46:19.575Z,29.24
2019-06-10T15:48:53.916Z,29.24
2019-06-10T15:51:25.936Z,29.19
2019-06-10T15:53:55.129Z,29.13
2019-06-10T15:56:39.860Z,29.05
2019-06-10T15:59:04.683Z,28.93
2019-06-10T16:01:35.145Z,28.66
2019-06-10T16:04:07.274Z,28.50
2019-06-10T16:06:39.800Z,28.04
2019-06-10T16:09:13.838Z,27.90
2019-06-10T16:11:45.019Z,27.73
2019-06-10T16:14:16.640Z,27.49
2019-06-10T16:16:46.953Z,27.36
2019-06-10T16:19:21.271Z,27.08
2019-06-10T16:21:52.496Z,26.88
2019-06-10T16:24:26.951Z,26.58
2019-06-10T16:26:55.400Z,26.34
2019-06-10T16:29:27.079Z,26.25
2019-06-10T16:31:57.477Z,26.23
2019-06-10T16:34:29.101Z,26.15
2019-06-10T16:36:59.342Z,26.11
2019-06-10T16:39:29.708Z,25.55
2019-06-10T16:41:59.822Z,25.93
2019-06-10T16:44:32.785Z,25.74
2019-06-10T16:47:03.273Z,25.67
2019-06-10T16:49:36.538Z,25.56
2019-06-10T16:52:09.180Z,25.39
2019-06-10T16:54:41.941Z,25.38
2019-06-10T16:57:12.356Z,25.33
2019-06-10T16:59:43.346Z,25.25
2019-06-10T17:02:14.331Z,25.12
2019-06-10T17:04:44.586Z,25.02
2019-06-10T17:07:14.863Z,24.91
2019-06-10T17:09:45.279Z,24.77
2019-06-10T17:12:15.438Z,24.59
2019-06-10T17:14:45.425Z,24.40
2019-06-10T17:17:16.854Z,24.13
2019-06-10T17:19:47.585Z,23.89
2019-06-10T17:22:18.739Z,23.73
2019-06-10T17:24:50.331Z,23.53
2019-06-10T17:27:23.269Z,23.28
2019-06-10T17:29:52.820Z,23.14
2019-06-10T17:32:25.604Z,23.10
2019-06-10T17:34:56.354Z,23.05
2019-06-10T17:37:28.564Z,23.00
2019-06-10T17:39:58.698Z,22.90
2019-06-10T17:42:34.559Z,22.70
2019-06-10T17:45:02.504Z,22.61
2019-06-10T17:47:34.630Z,22.58
2019-06-10T17:50:05.532Z,22.47
2019-06-10T17:52:38.772Z,22.43
2019-06-10T17:55:08.696Z,22.34
2019-06-10T17:57:38.703Z,21.63
2019-06-10T18:00:12.299Z,22.10
2019-06-10T18:02:42.724Z,21.93
2019-06-10T18:05:13.284Z,21.85
2019-06-10T18:07:44.325Z,21.71
2019-06-10T18:10:15.822Z,21.70
2019-06-10T18:12:46.279Z,21.56
2019-06-10T18:15:16.941Z,21.55
2019-06-10T18:17:47.015Z,21.54
2019-06-10T18:20:18.640Z,21.54
2019-06-10T18:22:48.842Z,21.55
2019-06-10T18:25:19.721Z,21.55
2019-06-10T18:27:52.216Z,21.51
2019-06-10T18:30:22.343Z,21.50
2019-06-10T18:32:53.129Z,21.48
2019-06-10T18:35:23.525Z,21.45
2019-06-10T18:37:53.934Z,21.47
2019-06-10T18:40:27.469Z,21.51
2019-06-10T18:42:58.011Z,21.48
2019-06-10T18:45:28.146Z,21.50
2019-06-10T18:47:59.096Z,21.51
2019-06-10T18:50:32.894Z,21.54
2019-06-10T18:53:04.156Z,21.54
2019-06-10T18:55:37.237Z,21.50
2019-06-10T18:58:06.394Z,20.99
2019-06-10T19:00:53.533Z,21.50
2019-06-10T19:03:13.895Z,21.49
2019-06-10T19:05:42.751Z,20.92
2019-06-10T19:08:13.711Z,21.42
2019-06-10T19:10:45.417Z,21.46
2019-06-10T19:13:15.843Z,21.50
2019-06-10T19:15:46.095Z,21.55
2019-06-10T19:18:16.634Z,21.59
2019-06-10T19:20:49.353Z,21.61
2019-06-10T19:23:19.436Z,21.61
2019-06-10T19:25:52.433Z,21.59
2019-06-10T19:28:23.156Z,21.59
2019-06-10T19:30:53.887Z,21.59
2019-06-10T19:33:23.973Z,21.60
2019-06-10T19:35:55.813Z,21.60
2019-06-10T19:38:28.286Z,21.09
2019-06-10T19:40:59.956Z,21.55
2019-06-10T19:43:36.162Z,21.51
2019-06-10T19:46:08.288Z,21.50
2019-06-10T19:48:42.302Z,21.44
2019-06-10T19:51:16.792Z,21.41
2019-06-10T19:53:52.557Z,21.37
2019-06-10T19:56:33.101Z,21.37
2019-06-10T19:59:17.964Z,20.80
2019-06-10T20:01:53.901Z,21.20
2019-06-10T20:04:33.411Z,21.13
2019-06-10T20:07:12.821Z,20.65
2019-06-10T20:09:52.968Z,21.05
2019-06-10T20:12:27.731Z,21.09
2019-06-10T20:15:02.110Z,21.08
2019-06-10T20:17:39.598Z,21.12
2019-06-10T20:20:14.598Z,21.13
2019-06-10T20:22:49.020Z,21.12
2019-06-10T20:25:22.348Z,21.04
2019-06-10T20:28:03.023Z,21.01
2019-06-10T20:30:37.210Z,20.98
2019-06-10T20:33:09.650Z,20.90
2019-06-10T20:35:42.131Z,20.86
2019-06-10T20:38:17.152Z,20.83
2019-06-10T20:40:48.769Z,20.77
2019-06-10T20:43:19.139Z,20.73
2019-06-10T20:45:50.457Z,20.69
2019-06-10T20:48:24.276Z,20.63
2019-06-10T20:50:55.394Z,20.58
2019-06-10T20:53:25.615Z,20.53
2019-06-10T20:55:57.662Z,20.48
2019-06-10T20:58:28.181Z,20.45
2019-06-10T21:00:58.701Z,20.38
2019-06-10T21:03:32.364Z,20.29
2019-06-10T21:06:05.089Z,20.26
2019-06-10T21:08:35.926Z,20.25
2019-06-10T21:11:06.367Z,20.21
2019-06-10T21:13:37.422Z,20.18
2019-06-10T21:16:09.529Z,20.17
2019-06-10T21:18:40.360Z,20.20
2019-06-10T21:21:10.788Z,20.19
2019-06-10T21:23:44.631Z,19.70
2019-06-10T21:26:14.737Z,20.17
2019-06-10T21:28:48.507Z,20.16
2019-06-10T21:31:17.541Z,20.14
2019-06-10T21:33:49.545Z,20.12
2019-06-10T21:36:19.966Z,20.11
2019-06-10T21:38:51.867Z,20.09
2019-06-10T21:41:22.759Z,20.01
2019-06-10T21:43:59.160Z,19.97
2019-06-10T21:46:24.922Z,19.96
2019-06-10T21:48:55.838Z,19.91
2019-06-10T21:51:26.694Z,19.87
2019-06-10T21:53:57.791Z,19.35
2019-06-10T21:56:32.816Z,19.81
2019-06-10T21:59:02.958Z,19.52
2019-06-10T22:01:33.711Z,19.76
2019-06-10T22:04:06.411Z,19.73
2019-06-10T22:06:36.338Z,19.70
2019-06-10T22:09:12.357Z,19.70
2019-06-10T22:11:48.538Z,19.68
2019-06-10T22:14:26.418Z,19.68
2019-06-10T22:16:57.070Z,19.67
2019-06-10T22:19:27.103Z,19.65
2019-06-10T22:21:56.977Z,19.64
2019-06-10T22:24:26.996Z,19.63
2019-06-10T22:26:57.559Z,19.58
2019-06-10T22:29:28.853Z,19.07
2019-06-10T22:31:58.774Z,19.53
2019-06-10T22:34:28.919Z,19.51
2019-06-10T22:36:59.223Z,19.49
2019-06-10T22:39:29.213Z,19.46
2019-06-10T22:41:59.702Z,19.41
2019-06-10T22:44:29.852Z,19.39
2019-06-10T22:47:02.779Z,19.38
2019-06-10T22:49:32.812Z,19.39
2019-06-10T22:52:05.906Z,19.37
2019-06-10T22:54:36.110Z,19.38
2019-06-10T22:57:06.929Z,19.29
2019-06-10T22:59:37.237Z,19.30
2019-06-10T23:02:07.374Z,19.28
2019-06-10T23:04:39.190Z,19.31
2019-06-10T23:07:09.032Z,19.34
2019-06-10T23:09:39.578Z,19.38
2019-06-10T23:12:11.952Z,18.84
2019-06-10T23:14:45.065Z,19.26
2019-06-10T23:17:15.456Z,18.74
2019-06-10T23:19:47.109Z,19.20
2019-06-10T23:22:17.465Z,19.18
2019-06-10T23:24:47.743Z,19.20
2019-06-10T23:27:19.287Z,19.23
2019-06-10T23:29:53.937Z,19.25
2019-06-10T23:32:23.017Z,19.28
2019-06-10T23:34:54.698Z,19.33
2019-06-10T23:37:26.981Z,19.40
2019-06-10T23:39:57.035Z,19.45
2019-06-10T23:42:28.398Z,19.52
2019-06-10T23:44:59.195Z,19.56
2019-06-10T23:47:29.814Z,19.64
2019-06-10T23:50:03.717Z,19.70
2019-06-10T23:52:32.968Z,19.68
2019-06-10T23:55:04.518Z,19.65
2019-06-10T23:57:34.725Z,19.62
